Wan Hai 508 — 9VJJ6 — position and weather

sailwx.info

Track history (hours):
 
Tides and Currents Weather Stations Pressure Air Temp Water Temp Dewpoint Dewpoint Depression Visibility Wind Speed Wind Dir Waves Ship Positions

Wan Hai 508

Last reported at 2016-May-23 03:24 UTC. Time now 2016-May-25 07:14 UTC.
Position N 01°56' E 102°19'.

Length 269 m; draft 9.1 m.

Type: Cargo ship. MMSI: 565567000.

Date/timePositionNaut miles runAvg speedWind from/ knotsBaromVisibWave heightAir tempDewpointWater temp
2016-May-23 03:24N 01°56' E 102°19'1214.1
2016-May-23 02:33N 01°51' E 102°29'1413.7
2016-May-23 01:33N 01°46' E 102°42'1413.5
2016-May-23 00:33N 01°40' E 102°54'1614.6
2016-May-22 23:25N 01°30' E 103°07'3014.7
2016-May-22 21:24N 01°12' E 103°31'1011.4
2016-May-22 20:33N 01°13' E 103°41'7 6.6
2016-May-22 19:33N 01°17' E 103°46'0 0.1
2016-May-22 18:29N 01°17' E 103°46'0 0.0
2016-May-22 17:20N 01°17' E 103°46'0 0.0
2016-May-22 16:29N 01°17' E 103°46'0 0.0
2016-May-22 15:26N 01°17' E 103°46'0 0.0
2016-May-22 14:32N 01°17' E 103°46'0 0.0
2016-May-22 13:26N 01°17' E 103°46'0 0.0
2016-May-22 12:29N 01°17' E 103°46'0 0.0
2016-May-22 11:33N 01°17' E 103°46'1 1.3
2016-May-22 10:33N 01°16' E 103°46'5 5.5
2016-May-22 09:33N 01°15' E 103°51'1 0.6
2016-May-22 08:14N 01°16' E 103°51'0 0.0
2016-May-22 07:27N 01°16' E 103°51'0 0.0
2016-May-22 06:32N 01°16' E 103°51'0 0.0
2016-May-22 05:33N 01°16' E 103°51'0 0.0
2016-May-22 04:32N 01°16' E 103°51'0 0.0
2016-May-22 03:33N 01°16' E 103°51'0 0.0
2016-May-22 02:30N 01°16' E 103°51'0 0.0
2016-May-22 01:33N 01°16' E 103°51'0 0.0
2016-May-22 00:33N 01°16' E 103°51'0 0.0
2016-May-21 23:33N 01°16' E 103°51'0 0.3
2016-May-21 22:34N 01°16' E 103°51'4 4.2
2016-May-21 21:33N 01°13' E 103°54'7 7.4
2016-May-21 20:34N 01°09' E 103°47'12 9.9
2016-May-21 19:18N 01°05' E 103°35'7514.2
2016-May-21 14:03N 01°45' E 102°32'917.5
2016-May-21 13:33N 01°48' E 102°24'  
Track history (hours):
 
Tides and Currents Weather Stations Pressure Air Temp Water Temp Dewpoint Dewpoint Depression Visibility Wind Speed Wind Dir Waves Ship Positions

Wan Hai 508

Last reported at 2016-May-23 03:24 UTC. Time now 2016-May-25 07:14 UTC.
Position N 01°56' E 102°19'.

Length 269 m; draft 9.1 m.

Type: Cargo ship. MMSI: 565567000.

Date/timePositionNaut miles runAvg speedWind from/ knotsBaromVisibWave heightAir tempDewpointWater temp
2016-May-23 03:24N 01°56' E 102°19'1214.1
2016-May-23 02:33N 01°51' E 102°29'1413.7
2016-May-23 01:33N 01°46' E 102°42'1413.5
2016-May-23 00:33N 01°40' E 102°54'1614.6
2016-May-22 23:25N 01°30' E 103°07'3014.7
2016-May-22 21:24N 01°12' E 103°31'1011.4
2016-May-22 20:33N 01°13' E 103°41'7 6.6
2016-May-22 19:33N 01°17' E 103°46'0 0.1
2016-May-22 18:29N 01°17' E 103°46'0 0.0
2016-May-22 17:20N 01°17' E 103°46'0 0.0
2016-May-22 16:29N 01°17' E 103°46'0 0.0
2016-May-22 15:26N 01°17' E 103°46'0 0.0
2016-May-22 14:32N 01°17' E 103°46'0 0.0
2016-May-22 13:26N 01°17' E 103°46'0 0.0
2016-May-22 12:29N 01°17' E 103°46'0 0.0
2016-May-22 11:33N 01°17' E 103°46'1 1.3
2016-May-22 10:33N 01°16' E 103°46'5 5.5
2016-May-22 09:33N 01°15' E 103°51'1 0.6
2016-May-22 08:14N 01°16' E 103°51'0 0.0
2016-May-22 07:27N 01°16' E 103°51'0 0.0
2016-May-22 06:32N 01°16' E 103°51'0 0.0
2016-May-22 05:33N 01°16' E 103°51'0 0.0
2016-May-22 04:32N 01°16' E 103°51'0 0.0
2016-May-22 03:33N 01°16' E 103°51'0 0.0
2016-May-22 02:30N 01°16' E 103°51'0 0.0
2016-May-22 01:33N 01°16' E 103°51'0 0.0
2016-May-22 00:33N 01°16' E 103°51'0 0.0
2016-May-21 23:33N 01°16' E 103°51'0 0.3
2016-May-21 22:34N 01°16' E 103°51'4 4.2
2016-May-21 21:33N 01°13' E 103°54'7 7.4
2016-May-21 20:34N 01°09' E 103°47'12 9.9
2016-May-21 19:18N 01°05' E 103°35'7514.2
2016-May-21 14:03N 01°45' E 102°32'917.5
2016-May-21 13:33N 01°48' E 102°24'  

Dump ship's entire track history